Jose Maria Córdova International Airport
SKRG : rendu visible

Aérodrome :











RETROUVEZ-NOUS SUR...

 
LOGIN :

S'inscrire | Disclaimer

   EN    FR    IT 

 









Légende :    VFR   VFR Marginal   IFR   IFR Intensif   IFR Très Intensif
Visi : 
Plafond : 
>= 8 km
>= 3000ft
5 à 8 km
1000 à 3000 ft
1500m à 5 km
500 à 1000 ft
800 à 1500m
200 à 500 ft
< 800m
< 200 ft
Symboles :   Orages  Brouillard  Fortes neiges  Fortes précipitations  Vent > 20 kt






- Altitude de l'aérodrome : 6955 ft
- Code IATA : MDE


SKRG - Jose Maria Córdova International

DERNIER METAR :
  • 150400Z 02005KT 4000 -RA BKN010 BKN080 14/14 A3032 RERA BECMG FM0430 5000 DZ

METARs EXPIRÉS :
  • 150300Z 03003KT 6000 DZ BKN010 BKN080 15/15 A3031 BECMG FM0320 4000 RA
  • 150200Z VRB02KT 9999 VCSH BKN010 SCT080 15/15 A3030 BECMG FM0210 5000 DZ RMK VCSH/S/W

TAF TAF SKRG
Valide du 15 à 00h jusqu'au 16 à 00h UTC


142230Z 1500/1524 VRB02KT 9999 SCT015 BKN090
TEMPO 1501/1506 5000 DZ BKN010
TEMPO 1508/1512 2000 DZ BR BKN007
BECMG 1514/1516 09010KT SCT015
TEMPO 1519/1522 DZRA SCT015CB TX21/1518Z TN13/1511Z



MET'MAP, la Météo Aéronautique d'un coup d'oeil ! - Copyright ORBIFLY Décembre 2007 - Disclaimer

ORBIFLY MET'MAP TEAM :

Programmation & Développement : Alexandra Zaïnal
Sur une idée originale de : Baudouin d'Aumeries
Assistance à la programmation : Marc-Olivier Méhu
Soutien technique & logistique : Manuel Goepfert

Contact : metmap@orbifly.com




SOURCES & CREDITS :

   NOAA       Earth
Advisory